sensor_id;sensor_type;location;lat;lon;timestamp;P1;durP1;ratioP1;P2;durP2;ratioP2
71836;SDS011;59686;51.716;7.016;2023-10-09T00:01:42;4.75;;;3.20;;
71836;SDS011;59686;51.716;7.016;2023-10-09T00:04:11;5.18;;;3.10;;
71836;SDS011;59686;51.716;7.016;2023-10-09T00:06:39;4.75;;;3.03;;
71836;SDS011;59686;51.716;7.016;2023-10-09T00:09:08;4.63;;;3.20;;
71836;SDS011;59686;51.716;7.016;2023-10-09T00:11:44;4.40;;;3.20;;
71836;SDS011;59686;51.716;7.016;2023-10-09T00:14:12;5.05;;;3.17;;
71836;SDS011;59686;51.716;7.016;2023-10-09T00:16:40;4.90;;;3.33;;
71836;SDS011;59686;51.716;7.016;2023-10-09T00:19:13;5.57;;;3.40;;
71836;SDS011;59686;51.716;7.016;2023-10-09T00:21:44;5.50;;;3.50;;
71836;SDS011;59686;51.716;7.016;2023-10-09T00:24:11;7.10;;;3.47;;
71836;SDS011;59686;51.716;7.016;2023-10-09T00:26:47;4.88;;;3.40;;
71836;SDS011;59686;51.716;7.016;2023-10-09T00:31:52;7.05;;;4.07;;
71836;SDS011;59686;51.716;7.016;2023-10-09T00:34:28;4.72;;;3.55;;
71836;SDS011;59686;51.716;7.016;2023-10-09T00:36:54;4.50;;;3.33;;
71836;SDS011;59686;51.716;7.016;2023-10-09T00:42:45;5.18;;;3.35;;
71836;SDS011;59686;51.716;7.016;2023-10-09T00:45:11;5.05;;;3.55;;
71836;SDS011;59686;51.716;7.016;2023-10-09T00:47:41;4.07;;;3.33;;
71836;SDS011;59686;51.716;7.016;2023-10-09T00:50:09;5.82;;;3.47;;
71836;SDS011;59686;51.716;7.016;2023-10-09T00:52:41;4.72;;;3.47;;
71836;SDS011;59686;51.716;7.016;2023-10-09T00:55:14;4.68;;;3.53;;
71836;SDS011;59686;51.716;7.016;2023-10-09T00:57:46;6.00;;;4.22;;
71836;SDS011;59686;51.716;7.016;2023-10-09T01:00:23;4.75;;;3.70;;
71836;SDS011;59686;51.716;7.016;2023-10-09T01:03:10;5.93;;;4.32;;
71836;SDS011;59686;51.716;7.016;2023-10-09T01:08:22;7.03;;;4.60;;
71836;SDS011;59686;51.716;7.016;2023-10-09T01:10:56;8.15;;;4.90;;
71836;SDS011;59686;51.716;7.016;2023-10-09T01:13:24;7.10;;;4.38;;
71836;SDS011;59686;51.716;7.016;2023-10-09T01:16:07;5.60;;;4.35;;
71836;SDS011;59686;51.716;7.016;2023-10-09T01:21:52;6.65;;;4.68;;
71836;SDS011;59686;51.716;7.016;2023-10-09T01:24:18;8.80;;;5.28;;
71836;SDS011;59686;51.716;7.016;2023-10-09T01:26:45;6.93;;;4.65;;
71836;SDS011;59686;51.716;7.016;2023-10-09T01:31:44;8.55;;;5.15;;
71836;SDS011;59686;51.716;7.016;2023-10-09T01:34:17;7.75;;;5.10;;
71836;SDS011;59686;51.716;7.016;2023-10-09T01:36:44;7.40;;;4.80;;
71836;SDS011;59686;51.716;7.016;2023-10-09T01:42:36;7.63;;;4.85;;
71836;SDS011;59686;51.716;7.016;2023-10-09T01:45:10;8.15;;;5.25;;
71836;SDS011;59686;51.716;7.016;2023-10-09T01:47:37;8.43;;;4.90;;
71836;SDS011;59686;51.716;7.016;2023-10-09T01:50:07;7.95;;;4.88;;
71836;SDS011;59686;51.716;7.016;2023-10-09T01:52:45;9.23;;;5.15;;
71836;SDS011;59686;51.716;7.016;2023-10-09T01:55:10;8.43;;;5.35;;
71836;SDS011;59686;51.716;7.016;2023-10-09T01:58:00;6.25;;;5.10;;
71836;SDS011;59686;51.716;7.016;2023-10-09T02:00:33;10.73;;;5.65;;
71836;SDS011;59686;51.716;7.016;2023-10-09T02:03:07;9.45;;;5.22;;
71836;SDS011;59686;51.716;7.016;2023-10-09T02:05:38;8.23;;;5.45;;
71836;SDS011;59686;51.716;7.016;2023-10-09T02:08:04;8.70;;;5.10;;
71836;SDS011;59686;51.716;7.016;2023-10-09T02:10:31;8.90;;;5.60;;
71836;SDS011;59686;51.716;7.016;2023-10-09T02:13:01;10.27;;;6.30;;
71836;SDS011;59686;51.716;7.016;2023-10-09T02:15:32;8.73;;;5.82;;
71836;SDS011;59686;51.716;7.016;2023-10-09T02:20:53;8.57;;;6.20;;
71836;SDS011;59686;51.716;7.016;2023-10-09T02:23:24;10.57;;;6.32;;
71836;SDS011;59686;51.716;7.016;2023-10-09T02:26:12;9.52;;;5.90;;
71836;SDS011;59686;51.716;7.016;2023-10-09T02:28:43;9.65;;;6.60;;
71836;SDS011;59686;51.716;7.016;2023-10-09T02:31:10;10.63;;;6.82;;
71836;SDS011;59686;51.716;7.016;2023-10-09T02:33:36;9.63;;;5.90;;
71836;SDS011;59686;51.716;7.016;2023-10-09T02:36:04;10.00;;;6.40;;
71836;SDS011;59686;51.716;7.016;2023-10-09T02:38:34;10.25;;;6.35;;
71836;SDS011;59686;51.716;7.016;2023-10-09T02:41:07;10.73;;;6.43;;
71836;SDS011;59686;51.716;7.016;2023-10-09T02:43:36;10.27;;;6.60;;
71836;SDS011;59686;51.716;7.016;2023-10-09T02:46:20;10.55;;;6.75;;
71836;SDS011;59686;51.716;7.016;2023-10-09T02:48:54;12.82;;;6.28;;
71836;SDS011;59686;51.716;7.016;2023-10-09T02:51:25;10.05;;;6.57;;
71836;SDS011;59686;51.716;7.016;2023-10-09T02:53:55;11.18;;;7.07;;
71836;SDS011;59686;51.716;7.016;2023-10-09T02:56:24;9.98;;;6.35;;
71836;SDS011;59686;51.716;7.016;2023-10-09T02:59:01;10.43;;;7.13;;
71836;SDS011;59686;51.716;7.016;2023-10-09T03:01:32;11.02;;;7.10;;
71836;SDS011;59686;51.716;7.016;2023-10-09T03:04:03;11.60;;;7.38;;
71836;SDS011;59686;51.716;7.016;2023-10-09T03:06:49;11.27;;;7.18;;
71836;SDS011;59686;51.716;7.016;2023-10-09T03:09:19;9.52;;;6.93;;
71836;SDS011;59686;51.716;7.016;2023-10-09T03:11:52;9.02;;;7.30;;
71836;SDS011;59686;51.716;7.016;2023-10-09T03:14:28;11.82;;;8.13;;
71836;SDS011;59686;51.716;7.016;2023-10-09T03:20:07;11.35;;;8.60;;
71836;SDS011;59686;51.716;7.016;2023-10-09T03:22:40;14.27;;;8.50;;
71836;SDS011;59686;51.716;7.016;2023-10-09T03:25:06;12.63;;;8.25;;
71836;SDS011;59686;51.716;7.016;2023-10-09T03:30:24;13.52;;;8.20;;
71836;SDS011;59686;51.716;7.016;2023-10-09T03:32:50;10.82;;;7.60;;
71836;SDS011;59686;51.716;7.016;2023-10-09T03:35:19;12.10;;;8.05;;
71836;SDS011;59686;51.716;7.016;2023-10-09T03:37:59;12.20;;;8.00;;
71836;SDS011;59686;51.716;7.016;2023-10-09T03:40:25;11.38;;;8.32;;
71836;SDS011;59686;51.716;7.016;2023-10-09T03:42:52;13.57;;;8.13;;
71836;SDS011;59686;51.716;7.016;2023-10-09T03:45:21;11.43;;;8.15;;
71836;SDS011;59686;51.716;7.016;2023-10-09T03:50:48;15.68;;;8.95;;
71836;SDS011;59686;51.716;7.016;2023-10-09T03:53:13;13.38;;;8.30;;
71836;SDS011;59686;51.716;7.016;2023-10-09T03:55:39;13.55;;;8.77;;
71836;SDS011;59686;51.716;7.016;2023-10-09T03:58:06;13.55;;;8.35;;
71836;SDS011;59686;51.716;7.016;2023-10-09T04:00:36;12.88;;;7.95;;
71836;SDS011;59686;51.716;7.016;2023-10-09T04:03:14;13.60;;;8.88;;
71836;SDS011;59686;51.716;7.016;2023-10-09T04:08:25;12.32;;;8.07;;
71836;SDS011;59686;51.716;7.016;2023-10-09T04:10:55;13.52;;;8.13;;
71836;SDS011;59686;51.716;7.016;2023-10-09T04:13:27;10.57;;;8.18;;
71836;SDS011;59686;51.716;7.016;2023-10-09T04:16:02;12.57;;;8.50;;
71836;SDS011;59686;51.716;7.016;2023-10-09T04:18:48;10.27;;;7.05;;
71836;SDS011;59686;51.716;7.016;2023-10-09T04:21:14;13.95;;;9.00;;
71836;SDS011;59686;51.716;7.016;2023-10-09T04:23:59;11.57;;;8.65;;
71836;SDS011;59686;51.716;7.016;2023-10-09T04:26:35;11.65;;;8.32;;
71836;SDS011;59686;51.716;7.016;2023-10-09T04:29:02;12.68;;;8.13;;
71836;SDS011;59686;51.716;7.016;2023-10-09T04:31:29;13.23;;;8.38;;
71836;SDS011;59686;51.716;7.016;2023-10-09T04:34:00;12.80;;;8.32;;
71836;SDS011;59686;51.716;7.016;2023-10-09T04:36:47;14.70;;;8.52;;
71836;SDS011;59686;51.716;7.016;2023-10-09T04:39:21;13.27;;;9.10;;
71836;SDS011;59686;51.716;7.016;2023-10-09T04:41:56;12.93;;;8.32;;
71836;SDS011;59686;51.716;7.016;2023-10-09T04:44:41;13.18;;;8.75;;
71836;SDS011;59686;51.716;7.016;2023-10-09T04:47:27;12.90;;;8.52;;
71836;SDS011;59686;51.716;7.016;2023-10-09T04:50:07;12.13;;;7.60;;
71836;SDS011;59686;51.716;7.016;2023-10-09T04:52:54;13.07;;;8.02;;
71836;SDS011;59686;51.716;7.016;2023-10-09T04:55:20;12.20;;;7.85;;
71836;SDS011;59686;51.716;7.016;2023-10-09T04:57:49;12.48;;;8.18;;
71836;SDS011;59686;51.716;7.016;2023-10-09T05:00:34;13.07;;;8.50;;
71836;SDS011;59686;51.716;7.016;2023-10-09T05:03:12;13.73;;;8.45;;
71836;SDS011;59686;51.716;7.016;2023-10-09T05:05:49;15.15;;;8.55;;
71836;SDS011;59686;51.716;7.016;2023-10-09T05:08:23;16.75;;;8.45;;
71836;SDS011;59686;51.716;7.016;2023-10-09T05:10:58;13.55;;;8.40;;
71836;SDS011;59686;51.716;7.016;2023-10-09T05:13:25;13.10;;;8.13;;
71836;SDS011;59686;51.716;7.016;2023-10-09T05:16:07;11.65;;;7.93;;
71836;SDS011;59686;51.716;7.016;2023-10-09T05:18:54;11.38;;;7.85;;
71836;SDS011;59686;51.716;7.016;2023-10-09T05:21:52;11.35;;;8.07;;
71836;SDS011;59686;51.716;7.016;2023-10-09T05:24:18;12.57;;;8.02;;
71836;SDS011;59686;51.716;7.016;2023-10-09T05:26:45;12.60;;;8.75;;
71836;SDS011;59686;51.716;7.016;2023-10-09T05:29:18;11.73;;;8.27;;
71836;SDS011;59686;51.716;7.016;2023-10-09T05:31:57;11.18;;;8.45;;
71836;SDS011;59686;51.716;7.016;2023-10-09T05:34:42;13.35;;;8.25;;
71836;SDS011;59686;51.716;7.016;2023-10-09T05:37:26;12.45;;;8.30;;
71836;SDS011;59686;51.716;7.016;2023-10-09T05:40:00;10.55;;;7.20;;
71836;SDS011;59686;51.716;7.016;2023-10-09T05:42:43;13.93;;;8.35;;
71836;SDS011;59686;51.716;7.016;2023-10-09T05:45:13;12.80;;;8.05;;
71836;SDS011;59686;51.716;7.016;2023-10-09T05:50:27;11.88;;;8.00;;
71836;SDS011;59686;51.716;7.016;2023-10-09T05:52:54;10.25;;;7.63;;
71836;SDS011;59686;51.716;7.016;2023-10-09T05:55:24;12.45;;;7.63;;
71836;SDS011;59686;51.716;7.016;2023-10-09T05:58:09;11.50;;;8.00;;
71836;SDS011;59686;51.716;7.016;2023-10-09T06:00:54;11.43;;;8.18;;
71836;SDS011;59686;51.716;7.016;2023-10-09T06:03:38;10.80;;;7.60;;
71836;SDS011;59686;51.716;7.016;2023-10-09T06:06:20;11.52;;;7.55;;
71836;SDS011;59686;51.716;7.016;2023-10-09T06:08:59;9.93;;;7.43;;
71836;SDS011;59686;51.716;7.016;2023-10-09T06:11:40;10.95;;;7.40;;
71836;SDS011;59686;51.716;7.016;2023-10-09T06:14:15;10.30;;;7.60;;
71836;SDS011;59686;51.716;7.016;2023-10-09T06:16:50;13.85;;;8.30;;
71836;SDS011;59686;51.716;7.016;2023-10-09T06:19:22;11.23;;;7.53;;
71836;SDS011;59686;51.716;7.016;2023-10-09T06:21:49;10.00;;;7.57;;
71836;SDS011;59686;51.716;7.016;2023-10-09T06:24:17;12.65;;;7.38;;
71836;SDS011;59686;51.716;7.016;2023-10-09T06:27:06;11.18;;;7.85;;
71836;SDS011;59686;51.716;7.016;2023-10-09T06:29:32;11.05;;;8.07;;
71836;SDS011;59686;51.716;7.016;2023-10-09T06:32:05;12.63;;;8.23;;
71836;SDS011;59686;51.716;7.016;2023-10-09T06:34:43;13.57;;;8.60;;
71836;SDS011;59686;51.716;7.016;2023-10-09T06:37:42;11.23;;;7.40;;
71836;SDS011;59686;51.716;7.016;2023-10-09T06:40:27;11.57;;;8.23;;
71836;SDS011;59686;51.716;7.016;2023-10-09T06:43:15;12.23;;;8.43;;
71836;SDS011;59686;51.716;7.016;2023-10-09T06:45:45;13.45;;;8.55;;
71836;SDS011;59686;51.716;7.016;2023-10-09T06:48:11;11.85;;;7.85;;
71836;SDS011;59686;51.716;7.016;2023-10-09T06:50:56;15.18;;;8.35;;
71836;SDS011;59686;51.716;7.016;2023-10-09T06:53:42;14.02;;;9.32;;
71836;SDS011;59686;51.716;7.016;2023-10-09T07:01:25;13.63;;;8.90;;
71836;SDS011;59686;51.716;7.016;2023-10-09T07:04:22;11.20;;;8.52;;
71836;SDS011;59686;51.716;7.016;2023-10-09T07:13:40;16.63;;;10.00;;
71836;SDS011;59686;51.716;7.016;2023-10-09T07:16:06;17.60;;;10.43;;
71836;SDS011;59686;51.716;7.016;2023-10-09T07:19:00;11.77;;;8.40;;
71836;SDS011;59686;51.716;7.016;2023-10-09T07:25:04;12.05;;;8.40;;
71836;SDS011;59686;51.716;7.016;2023-10-09T07:27:41;11.00;;;7.80;;
71836;SDS011;59686;51.716;7.016;2023-10-09T07:30:13;16.77;;;8.50;;
71836;SDS011;59686;51.716;7.016;2023-10-09T07:33:02;16.05;;;9.13;;
71836;SDS011;59686;51.716;7.016;2023-10-09T07:35:36;12.25;;;9.05;;
71836;SDS011;59686;51.716;7.016;2023-10-09T07:38:23;13.90;;;8.65;;
71836;SDS011;59686;51.716;7.016;2023-10-09T07:41:00;12.52;;;8.90;;
71836;SDS011;59686;51.716;7.016;2023-10-09T07:43:27;13.85;;;9.13;;
71836;SDS011;59686;51.716;7.016;2023-10-09T07:46:03;15.30;;;8.85;;
71836;SDS011;59686;51.716;7.016;2023-10-09T07:48:51;13.98;;;8.27;;
71836;SDS011;59686;51.716;7.016;2023-10-09T07:51:21;10.98;;;8.13;;
71836;SDS011;59686;51.716;7.016;2023-10-09T07:53:51;10.55;;;8.13;;
71836;SDS011;59686;51.716;7.016;2023-10-09T07:56:35;12.82;;;8.18;;
71836;SDS011;59686;51.716;7.016;2023-10-09T07:59:08;11.88;;;8.73;;
71836;SDS011;59686;51.716;7.016;2023-10-09T08:01:41;12.35;;;8.73;;
71836;SDS011;59686;51.716;7.016;2023-10-09T08:04:24;14.45;;;9.10;;
71836;SDS011;59686;51.716;7.016;2023-10-09T08:07:04;12.80;;;8.90;;
71836;SDS011;59686;51.716;7.016;2023-10-09T08:09:32;14.32;;;9.82;;
71836;SDS011;59686;51.716;7.016;2023-10-09T08:12:22;13.52;;;9.02;;
71836;SDS011;59686;51.716;7.016;2023-10-09T08:15:07;12.95;;;8.77;;
71836;SDS011;59686;51.716;7.016;2023-10-09T08:17:52;11.70;;;8.43;;
71836;SDS011;59686;51.716;7.016;2023-10-09T08:20:22;15.98;;;10.07;;
71836;SDS011;59686;51.716;7.016;2023-10-09T08:22:52;14.73;;;9.15;;
71836;SDS011;59686;51.716;7.016;2023-10-09T08:25:21;15.20;;;9.73;;
71836;SDS011;59686;51.716;7.016;2023-10-09T08:28:00;14.23;;;9.05;;
71836;SDS011;59686;51.716;7.016;2023-10-09T08:30:39;13.45;;;9.73;;
71836;SDS011;59686;51.716;7.016;2023-10-09T08:33:17;16.58;;;9.52;;
71836;SDS011;59686;51.716;7.016;2023-10-09T08:35:56;14.20;;;8.57;;
71836;SDS011;59686;51.716;7.016;2023-10-09T08:38:32;12.85;;;8.77;;
71836;SDS011;59686;51.716;7.016;2023-10-09T08:41:06;15.68;;;9.63;;
71836;SDS011;59686;51.716;7.016;2023-10-09T08:43:49;13.05;;;9.02;;
71836;SDS011;59686;51.716;7.016;2023-10-09T08:46:25;15.18;;;9.23;;
71836;SDS011;59686;51.716;7.016;2023-10-09T08:48:55;12.18;;;9.40;;
71836;SDS011;59686;51.716;7.016;2023-10-09T08:51:28;14.05;;;9.88;;
71836;SDS011;59686;51.716;7.016;2023-10-09T08:53:54;13.35;;;9.02;;
71836;SDS011;59686;51.716;7.016;2023-10-09T08:56:21;12.38;;;9.20;;
71836;SDS011;59686;51.716;7.016;2023-10-09T08:58:55;14.45;;;9.05;;
71836;SDS011;59686;51.716;7.016;2023-10-09T09:01:22;14.65;;;8.40;;
71836;SDS011;59686;51.716;7.016;2023-10-09T09:03:50;12.48;;;9.80;;
71836;SDS011;59686;51.716;7.016;2023-10-09T09:06:21;11.60;;;8.85;;
71836;SDS011;59686;51.716;7.016;2023-10-09T09:08:49;13.52;;;9.18;;
71836;SDS011;59686;51.716;7.016;2023-10-09T09:11:19;15.75;;;9.63;;
71836;SDS011;59686;51.716;7.016;2023-10-09T09:19:20;13.90;;;9.52;;
71836;SDS011;59686;51.716;7.016;2023-10-09T09:21:57;13.32;;;8.95;;
71836;SDS011;59686;51.716;7.016;2023-10-09T09:24:37;13.52;;;9.05;;
71836;SDS011;59686;51.716;7.016;2023-10-09T09:27:04;15.43;;;9.13;;
71836;SDS011;59686;51.716;7.016;2023-10-09T09:29:46;13.80;;;9.20;;
71836;SDS011;59686;51.716;7.016;2023-10-09T09:32:26;11.27;;;8.98;;
71836;SDS011;59686;51.716;7.016;2023-10-09T09:35:00;14.75;;;9.75;;
71836;SDS011;59686;51.716;7.016;2023-10-09T09:37:30;13.63;;;9.32;;
71836;SDS011;59686;51.716;7.016;2023-10-09T09:40:15;14.88;;;9.90;;
71836;SDS011;59686;51.716;7.016;2023-10-09T09:42:55;15.57;;;10.57;;
71836;SDS011;59686;51.716;7.016;2023-10-09T09:45:31;17.55;;;10.63;;
71836;SDS011;59686;51.716;7.016;2023-10-09T09:48:04;14.73;;;9.85;;
71836;SDS011;59686;51.716;7.016;2023-10-09T09:50:34;13.80;;;10.15;;
71836;SDS011;59686;51.716;7.016;2023-10-09T09:53:08;16.98;;;9.32;;
71836;SDS011;59686;51.716;7.016;2023-10-09T09:55:41;16.55;;;10.68;;
71836;SDS011;59686;51.716;7.016;2023-10-09T09:58:22;15.02;;;10.23;;
71836;SDS011;59686;51.716;7.016;2023-10-09T10:00:53;16.95;;;11.95;;
71836;SDS011;59686;51.716;7.016;2023-10-09T10:03:31;15.32;;;10.40;;
71836;SDS011;59686;51.716;7.016;2023-10-09T10:06:02;19.02;;;10.60;;
71836;SDS011;59686;51.716;7.016;2023-10-09T10:08:35;16.38;;;10.95;;
71836;SDS011;59686;51.716;7.016;2023-10-09T10:11:04;14.52;;;10.77;;
71836;SDS011;59686;51.716;7.016;2023-10-09T10:16:15;19.00;;;12.27;;
71836;SDS011;59686;51.716;7.016;2023-10-09T10:18:59;16.45;;;10.77;;
71836;SDS011;59686;51.716;7.016;2023-10-09T10:21:32;15.95;;;11.18;;
71836;SDS011;59686;51.716;7.016;2023-10-09T10:29:45;17.65;;;11.00;;
71836;SDS011;59686;51.716;7.016;2023-10-09T10:32:11;17.85;;;11.77;;
71836;SDS011;59686;51.716;7.016;2023-10-09T10:37:36;15.73;;;11.00;;
71836;SDS011;59686;51.716;7.016;2023-10-09T10:40:24;16.58;;;10.75;;
71836;SDS011;59686;51.716;7.016;2023-10-09T10:43:14;20.15;;;12.02;;
71836;SDS011;59686;51.716;7.016;2023-10-09T10:46:05;16.00;;;11.10;;
71836;SDS011;59686;51.716;7.016;2023-10-09T10:48:39;18.90;;;12.07;;
71836;SDS011;59686;51.716;7.016;2023-10-09T10:51:11;18.65;;;12.65;;
71836;SDS011;59686;51.716;7.016;2023-10-09T10:53:52;16.48;;;10.95;;
71836;SDS011;59686;51.716;7.016;2023-10-09T10:56:24;17.48;;;11.95;;
71836;SDS011;59686;51.716;7.016;2023-10-09T10:59:01;18.58;;;12.30;;
71836;SDS011;59686;51.716;7.016;2023-10-09T11:01:32;18.58;;;12.05;;
71836;SDS011;59686;51.716;7.016;2023-10-09T11:04:17;19.73;;;12.63;;
71836;SDS011;59686;51.716;7.016;2023-10-09T11:07:09;16.58;;;11.57;;
71836;SDS011;59686;51.716;7.016;2023-10-09T11:09:49;19.00;;;11.32;;
71836;SDS011;59686;51.716;7.016;2023-10-09T11:12:25;23.88;;;13.25;;
71836;SDS011;59686;51.716;7.016;2023-10-09T11:15:03;21.55;;;12.77;;
71836;SDS011;59686;51.716;7.016;2023-10-09T11:17:45;19.75;;;12.05;;
71836;SDS011;59686;51.716;7.016;2023-10-09T11:20:53;19.70;;;12.13;;
71836;SDS011;59686;51.716;7.016;2023-10-09T11:23:29;23.20;;;13.02;;
71836;SDS011;59686;51.716;7.016;2023-10-09T11:25:59;20.30;;;12.88;;
71836;SDS011;59686;51.716;7.016;2023-10-09T11:28:44;21.58;;;12.25;;
71836;SDS011;59686;51.716;7.016;2023-10-09T11:31:27;18.65;;;12.25;;
71836;SDS011;59686;51.716;7.016;2023-10-09T11:33:52;19.33;;;12.80;;
71836;SDS011;59686;51.716;7.016;2023-10-09T11:36:19;19.50;;;12.50;;
71836;SDS011;59686;51.716;7.016;2023-10-09T11:38:46;16.75;;;11.73;;
71836;SDS011;59686;51.716;7.016;2023-10-09T11:43:54;22.88;;;12.50;;
71836;SDS011;59686;51.716;7.016;2023-10-09T11:46:25;18.02;;;12.40;;
71836;SDS011;59686;51.716;7.016;2023-10-09T11:49:09;19.15;;;11.70;;
71836;SDS011;59686;51.716;7.016;2023-10-09T11:51:44;22.17;;;13.25;;
71836;SDS011;59686;51.716;7.016;2023-10-09T11:54:30;19.13;;;13.00;;
71836;SDS011;59686;51.716;7.016;2023-10-09T11:56:57;18.38;;;12.40;;
71836;SDS011;59686;51.716;7.016;2023-10-09T11:59:26;17.88;;;12.35;;
71836;SDS011;59686;51.716;7.016;2023-10-09T12:01:52;17.73;;;12.70;;
71836;SDS011;59686;51.716;7.016;2023-10-09T12:04:19;16.60;;;11.88;;
71836;SDS011;59686;51.716;7.016;2023-10-09T12:06:45;19.33;;;12.55;;
71836;SDS011;59686;51.716;7.016;2023-10-09T12:09:11;18.02;;;12.68;;
71836;SDS011;59686;51.716;7.016;2023-10-09T12:11:41;19.48;;;12.50;;
71836;SDS011;59686;51.716;7.016;2023-10-09T12:14:07;18.67;;;12.88;;
71836;SDS011;59686;51.716;7.016;2023-10-09T12:16:33;16.67;;;11.82;;
71836;SDS011;59686;51.716;7.016;2023-10-09T12:18:58;14.98;;;12.15;;
71836;SDS011;59686;51.716;7.016;2023-10-09T12:21:25;17.98;;;12.70;;
71836;SDS011;59686;51.716;7.016;2023-10-09T12:23:53;18.17;;;11.98;;
71836;SDS011;59686;51.716;7.016;2023-10-09T12:26:22;20.33;;;13.15;;
71836;SDS011;59686;51.716;7.016;2023-10-09T12:28:49;21.13;;;12.35;;
71836;SDS011;59686;51.716;7.016;2023-10-09T12:31:16;21.30;;;12.23;;
71836;SDS011;59686;51.716;7.016;2023-10-09T12:33:49;23.85;;;14.10;;
71836;SDS011;59686;51.716;7.016;2023-10-09T12:36:16;18.60;;;12.55;;
71836;SDS011;59686;51.716;7.016;2023-10-09T12:38:45;18.63;;;12.63;;
71836;SDS011;59686;51.716;7.016;2023-10-09T12:41:24;19.10;;;12.00;;
71836;SDS011;59686;51.716;7.016;2023-10-09T12:43:49;18.40;;;12.88;;
71836;SDS011;59686;51.716;7.016;2023-10-09T12:46:17;18.27;;;12.23;;
71836;SDS011;59686;51.716;7.016;2023-10-09T12:48:44;18.48;;;13.02;;
71836;SDS011;59686;51.716;7.016;2023-10-09T12:51:12;18.88;;;13.50;;
71836;SDS011;59686;51.716;7.016;2023-10-09T12:53:42;19.23;;;13.15;;
71836;SDS011;59686;51.716;7.016;2023-10-09T12:56:08;20.30;;;13.02;;
71836;SDS011;59686;51.716;7.016;2023-10-09T12:58:34;18.38;;;12.43;;
71836;SDS011;59686;51.716;7.016;2023-10-09T13:01:02;22.80;;;12.00;;
71836;SDS011;59686;51.716;7.016;2023-10-09T13:03:34;16.50;;;11.73;;
71836;SDS011;59686;51.716;7.016;2023-10-09T13:06:03;18.45;;;13.07;;
71836;SDS011;59686;51.716;7.016;2023-10-09T13:08:35;17.85;;;12.57;;
71836;SDS011;59686;51.716;7.016;2023-10-09T13:11:05;19.33;;;13.55;;
71836;SDS011;59686;51.716;7.016;2023-10-09T13:13:46;18.00;;;12.15;;
71836;SDS011;59686;51.716;7.016;2023-10-09T13:18:55;19.13;;;12.32;;
71836;SDS011;59686;51.716;7.016;2023-10-09T13:23:48;20.02;;;12.85;;
71836;SDS011;59686;51.716;7.016;2023-10-09T13:26:19;20.73;;;12.52;;
71836;SDS011;59686;51.716;7.016;2023-10-09T13:28:51;17.67;;;12.43;;
71836;SDS011;59686;51.716;7.016;2023-10-09T13:31:17;21.83;;;13.90;;
71836;SDS011;59686;51.716;7.016;2023-10-09T13:33:46;18.75;;;12.07;;
71836;SDS011;59686;51.716;7.016;2023-10-09T13:36:14;20.38;;;12.10;;
71836;SDS011;59686;51.716;7.016;2023-10-09T13:38:56;16.88;;;12.35;;
71836;SDS011;59686;51.716;7.016;2023-10-09T13:41:22;20.80;;;12.27;;
71836;SDS011;59686;51.716;7.016;2023-10-09T13:43:54;23.20;;;12.82;;
71836;SDS011;59686;51.716;7.016;2023-10-09T13:46:22;19.13;;;12.05;;
71836;SDS011;59686;51.716;7.016;2023-10-09T13:48:48;19.23;;;12.95;;
71836;SDS011;59686;51.716;7.016;2023-10-09T13:51:14;18.13;;;12.85;;
71836;SDS011;59686;51.716;7.016;2023-10-09T13:53:44;18.52;;;12.68;;
71836;SDS011;59686;51.716;7.016;2023-10-09T13:56:14;19.08;;;12.57;;
71836;SDS011;59686;51.716;7.016;2023-10-09T13:58:44;16.90;;;11.98;;
71836;SDS011;59686;51.716;7.016;2023-10-09T14:01:10;16.40;;;11.95;;
71836;SDS011;59686;51.716;7.016;2023-10-09T14:03:35;18.23;;;12.27;;
71836;SDS011;59686;51.716;7.016;2023-10-09T14:06:04;16.67;;;11.32;;
71836;SDS011;59686;51.716;7.016;2023-10-09T14:08:37;16.27;;;11.75;;
71836;SDS011;59686;51.716;7.016;2023-10-09T14:11:08;18.40;;;13.60;;
71836;SDS011;59686;51.716;7.016;2023-10-09T14:13:42;19.98;;;12.52;;
71836;SDS011;59686;51.716;7.016;2023-10-09T14:16:08;20.88;;;13.15;;
71836;SDS011;59686;51.716;7.016;2023-10-09T14:18:51;17.35;;;12.15;;
71836;SDS011;59686;51.716;7.016;2023-10-09T14:21:26;21.67;;;13.20;;
71836;SDS011;59686;51.716;7.016;2023-10-09T14:23:57;16.52;;;12.13;;
71836;SDS011;59686;51.716;7.016;2023-10-09T14:26:24;18.55;;;12.15;;
71836;SDS011;59686;51.716;7.016;2023-10-09T14:28:50;18.80;;;12.30;;
71836;SDS011;59686;51.716;7.016;2023-10-09T14:31:17;19.50;;;12.82;;
71836;SDS011;59686;51.716;7.016;2023-10-09T14:33:51;17.58;;;11.93;;
71836;SDS011;59686;51.716;7.016;2023-10-09T14:36:18;15.98;;;12.18;;
71836;SDS011;59686;51.716;7.016;2023-10-09T14:38:47;18.40;;;12.13;;
71836;SDS011;59686;51.716;7.016;2023-10-09T14:41:17;15.25;;;11.05;;
71836;SDS011;59686;51.716;7.016;2023-10-09T14:43:50;18.17;;;12.30;;
71836;SDS011;59686;51.716;7.016;2023-10-09T14:46:17;16.95;;;11.98;;
71836;SDS011;59686;51.716;7.016;2023-10-09T14:48:52;14.93;;;11.07;;
71836;SDS011;59686;51.716;7.016;2023-10-09T14:51:22;18.55;;;12.05;;
71836;SDS011;59686;51.716;7.016;2023-10-09T14:53:55;17.15;;;11.15;;
71836;SDS011;59686;51.716;7.016;2023-10-09T14:56:29;19.60;;;12.70;;
71836;SDS011;59686;51.716;7.016;2023-10-09T14:58:59;16.63;;;11.07;;
71836;SDS011;59686;51.716;7.016;2023-10-09T15:01:25;20.98;;;11.40;;
71836;SDS011;59686;51.716;7.016;2023-10-09T15:03:59;17.73;;;10.65;;
71836;SDS011;59686;51.716;7.016;2023-10-09T15:06:26;15.75;;;10.68;;
71836;SDS011;59686;51.716;7.016;2023-10-09T15:08:58;14.35;;;10.48;;
71836;SDS011;59686;51.716;7.016;2023-10-09T15:11:33;21.73;;;11.38;;
71836;SDS011;59686;51.716;7.016;2023-10-09T15:13:59;18.77;;;11.55;;
71836;SDS011;59686;51.716;7.016;2023-10-09T15:16:25;16.60;;;10.00;;
71836;SDS011;59686;51.716;7.016;2023-10-09T15:18:55;15.20;;;10.23;;
71836;SDS011;59686;51.716;7.016;2023-10-09T15:21:23;16.25;;;10.23;;
71836;SDS011;59686;51.716;7.016;2023-10-09T15:23:55;14.77;;;10.30;;
71836;SDS011;59686;51.716;7.016;2023-10-09T15:26:21;14.48;;;10.38;;
71836;SDS011;59686;51.716;7.016;2023-10-09T15:28:51;17.15;;;10.32;;
71836;SDS011;59686;51.716;7.016;2023-10-09T15:31:17;14.90;;;9.88;;
71836;SDS011;59686;51.716;7.016;2023-10-09T15:33:44;16.30;;;10.02;;
71836;SDS011;59686;51.716;7.016;2023-10-09T15:36:13;13.05;;;8.38;;
71836;SDS011;59686;51.716;7.016;2023-10-09T15:38:42;16.75;;;9.85;;
71836;SDS011;59686;51.716;7.016;2023-10-09T15:41:07;16.17;;;10.00;;
71836;SDS011;59686;51.716;7.016;2023-10-09T15:43:35;13.40;;;9.35;;
71836;SDS011;59686;51.716;7.016;2023-10-09T15:46:01;14.57;;;9.07;;
71836;SDS011;59686;51.716;7.016;2023-10-09T15:48:27;14.65;;;8.77;;
71836;SDS011;59686;51.716;7.016;2023-10-09T15:50:52;14.32;;;9.02;;
71836;SDS011;59686;51.716;7.016;2023-10-09T15:53:19;12.52;;;8.30;;
71836;SDS011;59686;51.716;7.016;2023-10-09T15:55:47;13.98;;;8.57;;
71836;SDS011;59686;51.716;7.016;2023-10-09T15:58:19;16.10;;;8.93;;
71836;SDS011;59686;51.716;7.016;2023-10-09T16:00:45;10.98;;;8.23;;
71836;SDS011;59686;51.716;7.016;2023-10-09T16:05:40;11.75;;;8.35;;
71836;SDS011;59686;51.716;7.016;2023-10-09T16:08:06;13.05;;;7.57;;
71836;SDS011;59686;51.716;7.016;2023-10-09T16:10:33;14.43;;;8.27;;
71836;SDS011;59686;51.716;7.016;2023-10-09T16:13:00;11.52;;;8.10;;
71836;SDS011;59686;51.716;7.016;2023-10-09T16:15:26;12.82;;;7.20;;
71836;SDS011;59686;51.716;7.016;2023-10-09T16:17:52;14.65;;;8.85;;
71836;SDS011;59686;51.716;7.016;2023-10-09T16:20:24;12.05;;;8.48;;
71836;SDS011;59686;51.716;7.016;2023-10-09T16:22:51;11.73;;;7.95;;